createdAt,value
2024-01-15T00:00:23.567Z,9.77
2024-01-15T00:02:50.456Z,9.50
2024-01-15T00:05:17.308Z,10.27
2024-01-15T00:07:44.214Z,9.83
2024-01-15T00:10:11.269Z,10.07
2024-01-15T00:12:38.216Z,9.13
2024-01-15T00:15:06.096Z,8.30
2024-01-15T00:17:33.255Z,9.40
2024-01-15T00:20:00.165Z,9.10
2024-01-15T00:22:28.330Z,8.17
2024-01-15T00:24:55.326Z,8.53
2024-01-15T00:27:22.377Z,8.53
2024-01-15T00:29:49.341Z,7.47
2024-01-15T00:32:16.072Z,8.57
2024-01-15T00:34:43.970Z,7.63
2024-01-15T00:37:10.798Z,8.20
2024-01-15T00:39:37.898Z,7.83
2024-01-15T00:42:05.107Z,7.77
2024-01-15T00:44:32.020Z,6.90
2024-01-15T00:46:59.520Z,7.63
2024-01-15T00:49:28.316Z,9.27
2024-01-15T00:51:55.371Z,7.40
2024-01-15T00:54:22.377Z,8.13
2024-01-15T00:56:49.305Z,7.60
2024-01-15T00:59:16.352Z,7.67
2024-01-15T01:01:45.078Z,9.17
2024-01-15T01:04:12.160Z,8.27
2024-01-15T01:06:39.788Z,7.03
2024-01-15T01:09:06.837Z,7.77
2024-01-15T01:11:33.825Z,8.93
2024-01-15T01:14:01.831Z,7.83
2024-01-15T01:16:29.246Z,9.50
2024-01-15T01:18:56.219Z,8.50
2024-01-15T01:21:23.298Z,8.83
2024-01-15T01:23:50.603Z,10.47
2024-01-15T01:26:18.551Z,8.20
2024-01-15T01:28:45.651Z,7.93
2024-01-15T01:31:12.552Z,7.97
2024-01-15T01:33:41.596Z,8.70
2024-01-15T01:36:10.509Z,9.03
2024-01-15T01:38:38.230Z,8.07
2024-01-15T01:41:05.363Z,7.90
2024-01-15T01:43:32.273Z,7.67
2024-01-15T01:46:01.098Z,7.33
2024-01-15T01:48:28.919Z,8.50
2024-01-15T01:50:59.173Z,8.73
2024-01-15T01:53:30.563Z,7.30
2024-01-15T01:55:58.624Z,7.63
2024-01-15T01:58:26.822Z,8.43
2024-01-15T02:00:55.199Z,8.47
2024-01-15T02:03:22.517Z,8.57
2024-01-15T02:05:50.756Z,8.37
2024-01-15T02:08:18.116Z,9.10
2024-01-15T02:10:44.968Z,7.57
2024-01-15T02:13:12.123Z,9.77
2024-01-15T02:15:39.171Z,9.27
2024-01-15T02:18:08.948Z,8.50
2024-01-15T02:20:36.831Z,10.57
2024-01-15T02:23:10.578Z,9.93
2024-01-15T02:25:42.838Z,9.07
2024-01-15T02:28:11.437Z,8.37
2024-01-15T02:30:42.180Z,9.37
2024-01-15T02:33:11.022Z,9.00
2024-01-15T02:35:38.147Z,10.30
2024-01-15T02:38:06.311Z,8.87
2024-01-15T02:40:33.728Z,9.87
2024-01-15T02:43:00.660Z,9.33
2024-01-15T02:45:28.220Z,7.87
2024-01-15T02:47:55.066Z,7.67
2024-01-15T02:50:22.126Z,8.00
2024-01-15T02:52:48.969Z,8.03
2024-01-15T02:55:16.353Z,8.53
2024-01-15T02:57:43.323Z,7.90
2024-01-15T03:00:10.921Z,8.50
2024-01-15T03:02:48.384Z,8.97
2024-01-15T03:05:16.395Z,7.73
2024-01-15T03:07:43.893Z,7.13
2024-01-15T03:10:10.894Z,7.80
2024-01-15T03:12:37.852Z,6.63
2024-01-15T03:15:05.494Z,8.17
2024-01-15T03:17:32.725Z,7.37
2024-01-15T03:19:59.872Z,7.17
2024-01-15T03:22:26.695Z,7.20
2024-01-15T03:24:54.062Z,7.83
2024-01-15T03:27:20.934Z,8.53
2024-01-15T03:29:47.976Z,8.93
2024-01-15T03:32:17.127Z,5.93
2024-01-15T03:34:44.079Z,7.13
2024-01-15T03:37:10.892Z,7.47
2024-01-15T03:39:38.016Z,6.30
2024-01-15T03:42:05.772Z,7.73
2024-01-15T03:44:32.624Z,6.53
2024-01-15T03:46:59.714Z,7.90
2024-01-15T03:49:26.756Z,6.90
2024-01-15T03:51:53.853Z,7.67
2024-01-15T03:54:21.309Z,7.67
2024-01-15T03:56:48.345Z,7.67
2024-01-15T03:59:15.258Z,8.60
2024-01-15T04:01:42.890Z,6.83
2024-01-15T04:04:09.860Z,7.53
2024-01-15T04:06:37.099Z,7.70
2024-01-15T04:09:04.030Z,6.73
2024-01-15T04:11:30.893Z,8.20
2024-01-15T04:13:58.080Z,7.70
2024-01-15T04:16:24.835Z,7.83
2024-01-15T04:18:51.798Z,6.87
2024-01-15T04:21:19.590Z,7.27
2024-01-15T04:23:46.501Z,6.43
2024-01-15T04:26:13.467Z,7.07
2024-01-15T04:28:40.289Z,6.90
2024-01-15T04:31:07.397Z,7.03
2024-01-15T04:33:34.415Z,7.73
2024-01-15T04:36:06.492Z,7.23
2024-01-15T04:38:34.166Z,7.40
2024-01-15T04:41:01.331Z,7.53
2024-01-15T04:43:28.254Z,7.80
2024-01-15T04:45:55.143Z,5.90
2024-01-15T04:48:23.979Z,6.87
2024-01-15T04:50:51.488Z,6.93
2024-01-15T04:53:18.280Z,7.03
2024-01-15T04:55:45.195Z,7.13
2024-01-15T04:58:12.063Z,7.13
2024-01-15T05:00:39.149Z,7.07
2024-01-15T05:03:07.135Z,7.60
2024-01-15T05:05:33.997Z,7.10
2024-01-15T05:08:00.890Z,7.43
2024-01-15T05:10:28.287Z,7.63
2024-01-15T05:12:55.197Z,8.03
2024-01-15T05:15:21.968Z,6.97
2024-01-15T05:17:48.820Z,6.73
2024-01-15T05:20:15.923Z,7.60
2024-01-15T05:22:42.761Z,7.80
2024-01-15T05:25:09.616Z,8.30
2024-01-15T05:27:36.547Z,7.03
2024-01-15T05:30:04.000Z,7.20
2024-01-15T05:32:31.387Z,6.43
2024-01-15T05:34:58.206Z,6.83
2024-01-15T05:37:25.006Z,7.30
2024-01-15T05:39:51.938Z,8.00
2024-01-15T05:42:18.821Z,6.57
2024-01-15T05:44:45.593Z,7.77
2024-01-15T05:47:12.390Z,7.40
2024-01-15T05:49:39.829Z,6.83
2024-01-15T05:52:07.146Z,7.20
2024-01-15T05:54:34.008Z,6.73
2024-01-15T05:57:00.992Z,6.53
2024-01-15T05:59:28.121Z,6.60
2024-01-15T06:01:55.016Z,6.50
2024-01-15T06:04:22.040Z,7.87
2024-01-15T06:06:49.100Z,7.37
2024-01-15T06:09:16.149Z,7.17
2024-01-15T06:11:43.263Z,7.23
2024-01-15T06:14:10.298Z,7.10
2024-01-15T06:16:37.066Z,6.30
2024-01-15T06:19:04.279Z,6.47
2024-01-15T06:21:31.364Z,7.33
2024-01-15T06:23:58.284Z,7.03
2024-01-15T06:26:25.197Z,7.63
2024-01-15T06:28:52.152Z,7.30
2024-01-15T06:31:19.139Z,8.07
2024-01-15T06:33:48.609Z,7.10
2024-01-15T06:36:17.465Z,7.20
2024-01-15T06:38:45.205Z,7.17
2024-01-15T06:41:12.031Z,6.37
2024-01-15T06:43:39.008Z,6.53
2024-01-15T06:46:07.936Z,7.13
2024-01-15T06:48:35.970Z,6.83
2024-01-15T06:51:03.340Z,8.27
2024-01-15T06:53:30.187Z,6.73
2024-01-15T06:55:57.011Z,6.70
2024-01-15T06:58:23.976Z,7.73
2024-01-15T07:00:51.192Z,7.77
2024-01-15T07:03:18.137Z,7.03
2024-01-15T07:05:45.214Z,8.00
2024-01-15T07:08:12.012Z,8.73
2024-01-15T07:10:38.746Z,9.30
2024-01-15T07:13:06.718Z,10.23
2024-01-15T07:15:33.886Z,14.03
2024-01-15T07:18:00.753Z,10.17
2024-01-15T07:20:28.162Z,8.47
2024-01-15T07:22:55.130Z,7.80
2024-01-15T07:25:21.999Z,10.40
2024-01-15T07:27:49.527Z,9.00
2024-01-15T07:30:16.759Z,7.63
2024-01-15T07:32:43.847Z,7.80
2024-01-15T07:35:11.499Z,8.23
2024-01-15T07:37:38.459Z,7.73
2024-01-15T07:40:06.966Z,9.73
2024-01-15T07:42:34.049Z,8.27
2024-01-15T07:45:01.787Z,8.77
2024-01-15T07:47:32.136Z,9.93
2024-01-15T07:50:03.111Z,9.17
2024-01-15T07:52:32.633Z,9.97
2024-01-15T07:55:04.682Z,9.80
2024-01-15T07:57:32.159Z,7.87
2024-01-15T07:59:59.209Z,9.67
2024-01-15T08:02:25.988Z,8.03
2024-01-15T08:04:52.948Z,9.80
2024-01-15T08:07:19.840Z,9.07
2024-01-15T08:09:49.118Z,8.60
2024-01-15T08:12:16.297Z,8.13
2024-01-15T08:14:43.187Z,8.93
2024-01-15T08:17:10.049Z,8.33
2024-01-15T08:19:37.768Z,10.00
2024-01-15T08:22:04.683Z,11.53
2024-01-15T08:24:32.691Z,13.77
2024-01-15T08:26:59.886Z,10.10
2024-01-15T08:29:27.084Z,11.77
2024-01-15T08:31:54.090Z,9.87
2024-01-15T08:34:21.122Z,8.40
2024-01-15T08:36:48.120Z,10.10
2024-01-15T08:39:15.244Z,8.33
2024-01-15T08:41:42.147Z,11.30
2024-01-15T08:44:09.030Z,9.07
2024-01-15T08:46:35.942Z,9.43
2024-01-15T08:49:04.610Z,8.93
2024-01-15T08:51:31.668Z,9.00
2024-01-15T08:53:59.288Z,9.13
2024-01-15T08:56:26.189Z,9.13
2024-01-15T08:58:52.970Z,9.37
2024-01-15T09:01:20.257Z,9.47
2024-01-15T09:03:47.800Z,9.13
2024-01-15T09:06:14.911Z,9.17
2024-01-15T09:08:45.673Z,8.13
2024-01-15T09:11:13.368Z,7.80
2024-01-15T09:13:40.939Z,9.00
2024-01-15T09:16:08.438Z,7.93
2024-01-15T09:18:36.406Z,7.40
2024-01-15T09:21:04.633Z,7.33
2024-01-15T09:23:31.371Z,8.40
2024-01-15T09:25:58.186Z,8.50
2024-01-15T09:28:25.003Z,8.43
2024-01-15T09:30:51.958Z,8.80
2024-01-15T09:33:18.989Z,7.67
2024-01-15T09:35:46.368Z,8.33
2024-01-15T09:38:13.343Z,7.50
2024-01-15T09:40:46.448Z,7.47
2024-01-15T09:43:15.156Z,7.43
2024-01-15T09:45:42.595Z,8.03
2024-01-15T09:48:09.620Z,7.77
2024-01-15T09:50:36.688Z,7.53
2024-01-15T09:53:05.625Z,7.20
2024-01-15T09:55:33.976Z,7.33
2024-01-15T09:58:03.060Z,8.37
2024-01-15T10:00:31.005Z,6.93
2024-01-15T10:02:58.053Z,6.47
2024-01-15T10:05:25.176Z,6.30
2024-01-15T10:07:54.414Z,7.17
2024-01-15T10:10:23.017Z,6.73
2024-01-15T10:12:51.081Z,6.70
2024-01-15T10:15:19.180Z,6.77
2024-01-15T10:17:46.296Z,6.60
2024-01-15T10:20:13.629Z,6.67
2024-01-15T10:22:44.459Z,8.80
2024-01-15T10:25:12.743Z,7.40
2024-01-15T10:27:41.474Z,7.77
2024-01-15T10:30:10.311Z,7.47
2024-01-15T10:32:37.778Z,7.40
2024-01-15T10:35:05.482Z,7.80
2024-01-15T10:37:34.551Z,6.80
2024-01-15T10:40:06.416Z,6.47
2024-01-15T10:42:33.626Z,7.00
2024-01-15T10:45:00.629Z,6.50
2024-01-15T10:47:27.866Z,8.80
2024-01-15T10:49:54.863Z,6.87
2024-01-15T10:52:26.110Z,7.37
2024-01-15T10:54:54.461Z,6.03
2024-01-15T10:57:23.585Z,6.10
2024-01-15T10:59:50.589Z,5.77
2024-01-15T11:02:17.904Z,6.60
2024-01-15T11:04:44.928Z,5.37
2024-01-15T11:07:13.327Z,5.67
2024-01-15T11:09:40.454Z,5.70
2024-01-15T11:12:10.511Z,6.30
2024-01-15T11:14:49.373Z,5.63
2024-01-15T11:17:18.508Z,5.30
2024-01-15T11:19:53.771Z,5.50
2024-01-15T11:22:30.396Z,5.23
2024-01-15T11:24:58.967Z,5.43
2024-01-15T11:27:48.709Z,5.03
2024-01-15T11:30:15.926Z,5.03
2024-01-15T11:32:43.876Z,6.17
2024-01-15T11:35:11.785Z,5.37
2024-01-15T11:38:08.551Z,5.27
2024-01-15T11:40:35.379Z,4.97
2024-01-15T11:43:04.048Z,5.43
2024-01-15T11:45:32.466Z,6.10
2024-01-15T11:48:16.190Z,6.70
2024-01-15T11:50:46.301Z,5.77
2024-01-15T11:53:33.364Z,6.40
2024-01-15T11:56:03.497Z,5.60
2024-01-15T11:58:31.755Z,5.23
2024-01-15T12:00:59.302Z,6.13
2024-01-15T12:03:26.442Z,5.63
2024-01-15T12:05:53.933Z,6.33
2024-01-15T12:08:24.951Z,5.97
2024-01-15T12:10:52.734Z,7.33
2024-01-15T12:13:21.360Z,7.70
2024-01-15T12:15:49.474Z,6.77
2024-01-15T12:18:20.649Z,6.83
2024-01-15T12:20:48.632Z,6.57
2024-01-15T12:23:17.672Z,7.30
2024-01-15T12:25:44.735Z,8.20
2024-01-15T12:28:11.758Z,6.80
2024-01-15T12:30:40.673Z,6.03
2024-01-15T12:33:09.185Z,5.63
2024-01-15T12:35:37.647Z,7.60
2024-01-15T12:38:05.145Z,5.90
2024-01-15T12:40:33.834Z,5.90
2024-01-15T12:43:01.976Z,6.00
2024-01-15T12:45:29.198Z,11.90
2024-01-15T12:47:56.588Z,7.00
2024-01-15T12:50:26.791Z,6.97
2024-01-15T12:52:53.666Z,5.83
2024-01-15T12:55:20.994Z,5.40
2024-01-15T12:57:48.079Z,6.30
2024-01-15T13:00:16.305Z,6.00
2024-01-15T13:02:44.871Z,5.80
2024-01-15T13:05:14.523Z,6.07
2024-01-15T13:07:45.033Z,5.87
2024-01-15T13:10:15.842Z,6.30
2024-01-15T13:12:43.157Z,5.30
2024-01-15T13:15:15.075Z,6.17
2024-01-15T13:17:47.309Z,5.80
2024-01-15T13:20:14.851Z,5.33
2024-01-15T13:22:45.335Z,6.20
2024-01-15T13:25:12.788Z,6.10
2024-01-15T13:27:40.495Z,6.17
2024-01-15T13:30:09.894Z,6.07
2024-01-15T13:32:37.360Z,5.67
2024-01-15T13:35:06.882Z,4.90
2024-01-15T13:37:34.223Z,6.17
2024-01-15T13:40:01.340Z,5.27
2024-01-15T13:42:30.210Z,5.57
2024-01-15T13:44:57.095Z,5.37
2024-01-15T13:47:25.376Z,5.60
2024-01-15T13:49:52.296Z,6.00
2024-01-15T13:52:22.006Z,6.40
2024-01-15T13:54:51.386Z,5.10
2024-01-15T13:57:21.577Z,5.67
2024-01-15T13:59:50.537Z,5.73
2024-01-15T14:02:20.649Z,8.77
2024-01-15T14:04:50.417Z,7.50
2024-01-15T14:07:18.312Z,8.43
2024-01-15T14:09:45.538Z,6.93
2024-01-15T14:12:13.165Z,6.70
2024-01-15T14:14:41.247Z,7.07
2024-01-15T14:17:10.846Z,7.50
2024-01-15T14:19:38.116Z,6.67
2024-01-15T14:22:05.210Z,6.33
2024-01-15T14:24:32.128Z,5.80
2024-01-15T14:26:59.655Z,5.27
2024-01-15T14:29:27.566Z,6.60
2024-01-15T14:31:54.921Z,7.67
2024-01-15T14:34:25.019Z,6.33
2024-01-15T14:36:55.335Z,6.17
2024-01-15T14:39:25.723Z,6.10
2024-01-15T14:41:53.562Z,4.97
2024-01-15T14:44:20.488Z,4.70
2024-01-15T14:46:47.549Z,5.40
2024-01-15T14:49:15.771Z,4.80
2024-01-15T14:51:43.686Z,4.33
2024-01-15T14:54:11.801Z,4.13
2024-01-15T14:56:39.602Z,5.10
2024-01-15T14:59:06.442Z,5.27
2024-01-15T15:01:33.640Z,4.67
2024-01-15T15:04:01.096Z,5.33
2024-01-15T15:06:29.033Z,4.20
2024-01-15T15:08:59.825Z,5.17
2024-01-15T15:11:29.883Z,4.77
2024-01-15T15:13:56.735Z,4.60
2024-01-15T15:16:23.789Z,3.97
2024-01-15T15:18:56.259Z,4.23
2024-01-15T15:21:32.034Z,4.03
2024-01-15T15:23:58.986Z,5.40
2024-01-15T15:26:25.961Z,4.83
2024-01-15T15:28:53.120Z,4.53
2024-01-15T15:31:26.216Z,3.83
2024-01-15T15:33:54.252Z,4.13
2024-01-15T15:36:21.377Z,4.20
2024-01-15T15:38:49.734Z,4.30
2024-01-15T15:41:16.733Z,4.40
2024-01-15T15:43:43.681Z,4.13
2024-01-15T15:46:10.822Z,4.10
2024-01-15T15:48:37.864Z,4.83
2024-01-15T15:51:05.006Z,4.53
2024-01-15T15:53:32.006Z,4.40
2024-01-15T15:55:59.655Z,3.83
2024-01-15T15:58:27.397Z,5.77
2024-01-15T16:00:54.641Z,6.83
2024-01-15T16:03:21.791Z,4.80
2024-01-15T16:05:52.571Z,5.47
2024-01-15T16:08:21.496Z,4.83
2024-01-15T16:10:53.201Z,4.73
2024-01-15T16:13:20.762Z,4.57
2024-01-15T16:15:48.289Z,5.63
2024-01-15T16:23:19.812Z,6.57
2024-01-15T16:23:34.625Z,5.23
2024-01-15T16:24:11.505Z,5.47
2024-01-15T16:26:38.797Z,6.20
2024-01-15T16:29:06.570Z,5.23
2024-01-15T16:31:33.414Z,6.07
2024-01-15T16:34:05.113Z,4.77
2024-01-15T16:36:34.409Z,5.63
2024-01-15T16:39:01.999Z,3.97
2024-01-15T16:41:29.530Z,4.23
2024-01-15T16:43:56.670Z,3.40
2024-01-15T16:46:23.621Z,4.17
2024-01-15T16:48:51.152Z,4.40
2024-01-15T16:51:18.544Z,4.47
2024-01-15T16:53:46.531Z,4.37
2024-01-15T16:56:13.763Z,3.50
2024-01-15T16:58:40.870Z,4.17
2024-01-15T17:01:09.412Z,4.30
2024-01-15T17:03:36.458Z,4.40
2024-01-15T17:06:03.941Z,4.40
2024-01-15T17:08:31.579Z,3.50
2024-01-15T17:11:00.665Z,5.97
2024-01-15T17:13:29.079Z,3.73
2024-01-15T17:15:56.149Z,4.47
2024-01-15T17:18:23.421Z,4.03
2024-01-15T17:20:50.407Z,4.77
2024-01-15T17:23:17.303Z,3.77
2024-01-15T17:25:44.104Z,4.37
2024-01-15T17:28:11.017Z,4.57
2024-01-15T17:30:37.943Z,4.83
2024-01-15T17:33:05.528Z,4.20
2024-01-15T17:35:32.575Z,4.13
2024-01-15T17:37:59.509Z,4.50
2024-01-15T17:40:27.073Z,4.20
2024-01-15T17:42:53.835Z,4.37
2024-01-15T17:45:20.861Z,4.03
2024-01-15T17:47:50.340Z,3.70
2024-01-15T17:50:19.870Z,4.40
2024-01-15T17:52:46.752Z,5.13
2024-01-15T17:55:13.827Z,4.33
2024-01-15T17:57:41.779Z,3.53
2024-01-15T18:00:08.896Z,4.23
2024-01-15T18:02:36.085Z,3.80
2024-01-15T18:05:04.273Z,3.67
2024-01-15T18:07:31.304Z,4.27
2024-01-15T18:09:59.122Z,4.23
2024-01-15T18:12:27.015Z,4.00
2024-01-15T18:14:54.752Z,4.27
2024-01-15T18:17:25.306Z,4.57
2024-01-15T18:19:52.266Z,4.47
2024-01-15T18:22:19.619Z,4.90
2024-01-15T18:24:48.639Z,4.20
2024-01-15T18:27:22.428Z,3.77
2024-01-15T18:29:59.698Z,3.53
2024-01-15T18:32:52.185Z,4.73
2024-01-15T18:35:23.280Z,4.57
2024-01-15T18:38:01.404Z,5.10
2024-01-15T18:40:40.529Z,5.10
2024-01-15T18:43:10.241Z,5.40
2024-01-15T18:45:39.244Z,5.00
2024-01-15T18:48:08.325Z,5.80
2024-01-15T18:50:35.487Z,6.13
2024-01-15T18:53:04.175Z,4.17
2024-01-15T18:55:31.630Z,4.37
2024-01-15T18:58:00.696Z,4.60
2024-01-15T19:00:30.454Z,3.97
2024-01-15T19:02:59.292Z,5.00
2024-01-15T19:05:26.721Z,4.23
2024-01-15T19:07:57.126Z,3.73
2024-01-15T19:10:24.144Z,5.17
2024-01-15T19:12:51.127Z,4.87
2024-01-15T19:15:20.302Z,8.40
2024-01-15T19:17:50.074Z,6.50
2024-01-15T19:20:18.303Z,5.63
2024-01-15T19:22:45.207Z,4.60
2024-01-15T19:25:13.913Z,6.70
2024-01-15T19:27:45.675Z,5.57
2024-01-15T19:30:15.324Z,4.57
2024-01-15T19:32:42.203Z,4.77
2024-01-15T19:35:11.881Z,5.30
2024-01-15T19:37:39.045Z,5.57
2024-01-15T19:40:07.759Z,5.30
2024-01-15T19:42:34.645Z,5.17
2024-01-15T19:45:01.595Z,4.70
2024-01-15T19:47:31.417Z,6.90
2024-01-15T19:49:59.189Z,5.70
2024-01-15T19:52:26.244Z,5.53
2024-01-15T19:54:53.298Z,5.70
2024-01-15T19:57:20.343Z,6.27
2024-01-15T19:59:49.324Z,4.40
2024-01-15T20:02:16.427Z,3.73
2024-01-15T20:04:43.915Z,4.60
2024-01-15T20:07:11.303Z,5.17
2024-01-15T20:09:42.374Z,4.70
2024-01-15T20:12:14.098Z,3.77
2024-01-15T20:14:41.252Z,3.90
2024-01-15T20:17:08.388Z,3.70
2024-01-15T20:19:36.119Z,4.10
2024-01-15T20:22:12.071Z,3.83
2024-01-15T20:24:39.003Z,3.57
2024-01-15T20:27:07.072Z,4.40
2024-01-15T20:29:35.598Z,4.37
2024-01-15T20:32:03.347Z,2.90
2024-01-15T20:34:30.552Z,4.50
2024-01-15T20:36:57.384Z,4.67
2024-01-15T20:39:24.146Z,3.30
2024-01-15T20:41:59.314Z,3.30
2024-01-15T20:44:35.077Z,4.37
2024-01-15T20:47:04.648Z,5.13
2024-01-15T20:49:31.588Z,3.93
2024-01-15T20:52:05.485Z,3.30
2024-01-15T20:54:34.547Z,3.23
2024-01-15T20:57:04.150Z,2.83
2024-01-15T20:59:39.721Z,3.30
2024-01-15T21:02:18.959Z,5.07
2024-01-15T21:04:45.927Z,4.23
2024-01-15T21:07:21.939Z,3.77
2024-01-15T21:10:18.798Z,4.03
2024-01-15T21:13:17.524Z,4.07
2024-01-15T21:15:54.194Z,3.87
2024-01-15T21:18:25.319Z,3.23
2024-01-15T21:20:53.073Z,3.13
2024-01-15T21:23:29.527Z,3.37
2024-01-15T21:25:58.662Z,4.23
2024-01-15T21:28:25.975Z,4.93
2024-01-15T21:30:53.727Z,4.53
2024-01-15T21:33:20.839Z,3.97
2024-01-15T21:35:48.649Z,2.80
2024-01-15T21:38:17.798Z,3.20
2024-01-15T21:40:49.138Z,3.43
2024-01-15T21:43:16.177Z,3.50
2024-01-15T21:45:47.941Z,3.40
2024-01-15T21:48:17.496Z,3.60
2024-01-15T21:50:48.213Z,3.40
2024-01-15T21:53:17.738Z,3.13
2024-01-15T21:55:45.321Z,3.33
2024-01-15T21:58:15.077Z,3.40
2024-01-15T22:00:56.390Z,3.83
2024-01-15T22:03:23.772Z,3.30
2024-01-15T22:05:52.360Z,4.00
2024-01-15T22:08:20.377Z,2.70
2024-01-15T22:10:47.348Z,4.27
2024-01-15T22:13:14.211Z,2.90
2024-01-15T22:15:46.178Z,3.37
2024-01-15T22:18:13.862Z,3.70
2024-01-15T22:20:41.148Z,3.20
2024-01-15T22:23:08.072Z,3.60
2024-01-15T22:25:35.795Z,3.33
2024-01-15T22:28:05.020Z,2.93
2024-01-15T22:30:31.925Z,2.97
2024-01-15T22:32:58.831Z,3.27
2024-01-15T22:35:30.164Z,3.03
2024-01-15T22:37:57.097Z,3.00
2024-01-15T22:40:24.200Z,4.23
2024-01-15T22:42:51.277Z,3.27
2024-01-15T22:45:18.513Z,3.13
2024-01-15T22:47:46.669Z,3.43
2024-01-15T22:50:15.523Z,3.00
2024-01-15T22:52:45.100Z,3.10
2024-01-15T22:55:12.136Z,3.03
2024-01-15T22:57:39.027Z,3.63
2024-01-15T23:00:19.554Z,3.23
2024-01-15T23:02:48.118Z,3.13
2024-01-15T23:05:18.902Z,3.37
2024-01-15T23:07:52.012Z,3.13
2024-01-15T23:10:21.991Z,3.30
2024-01-15T23:12:57.389Z,3.97
2024-01-15T23:15:28.345Z,5.80
2024-01-15T23:17:57.493Z,3.40
2024-01-15T23:20:28.013Z,3.60
2024-01-15T23:22:54.872Z,3.53
2024-01-15T23:25:22.103Z,4.30
2024-01-15T23:27:51.750Z,3.90
2024-01-15T23:30:18.896Z,3.30
2024-01-15T23:32:49.756Z,3.10
2024-01-15T23:35:17.249Z,3.07
2024-01-15T23:37:44.258Z,3.87
2024-01-15T23:40:14.002Z,3.27
2024-01-15T23:42:40.998Z,3.50
2024-01-15T23:45:08.618Z,3.40
2024-01-15T23:47:35.939Z,3.47
2024-01-15T23:50:04.525Z,3.43
2024-01-15T23:52:36.615Z,2.93
2024-01-15T23:55:06.622Z,3.80
2024-01-15T23:57:33.444Z,3.37
